createdAt,value
2023-01-28T00:00:40.329Z,6.97
2023-01-28T00:03:08.009Z,6.43
2023-01-28T00:05:35.650Z,7.05
2023-01-28T00:08:04.802Z,7.28
2023-01-28T00:10:32.553Z,7.95
2023-01-28T00:13:00.265Z,8.77
2023-01-28T00:15:27.948Z,9.27
2023-01-28T00:17:55.935Z,11.48
2023-01-28T00:20:23.629Z,10.57
2023-01-28T00:22:52.237Z,8.15
2023-01-28T00:25:21.360Z,7.82
2023-01-28T00:27:49.337Z,7.22
2023-01-28T00:30:17.123Z,6.65
2023-01-28T00:32:44.830Z,8.27
2023-01-28T00:35:13.925Z,7.68
2023-01-28T00:37:41.874Z,7.72
2023-01-28T00:40:10.540Z,7.25
2023-01-28T00:42:39.618Z,7.63
2023-01-28T00:45:07.760Z,7.97
2023-01-28T00:47:35.601Z,7.93
2023-01-28T00:50:03.997Z,8.10
2023-01-28T00:52:33.953Z,10.05
2023-01-28T00:55:01.660Z,7.45
2023-01-28T00:57:29.399Z,8.35
2023-01-28T00:59:58.425Z,8.88
2023-01-28T01:02:26.177Z,8.18
2023-01-28T01:04:59.987Z,9.73
2023-01-28T01:07:41.940Z,9.35
2023-01-28T01:10:10.559Z,9.52
2023-01-28T01:12:38.226Z,9.88
2023-01-28T01:15:08.907Z,9.88
2023-01-28T01:17:37.726Z,7.97
2023-01-28T01:20:05.826Z,8.48
2023-01-28T01:22:34.178Z,9.20
2023-01-28T01:25:01.879Z,8.65
2023-01-28T01:27:29.548Z,9.52
2023-01-28T01:29:59.020Z,9.70
2023-01-28T01:32:30.697Z,8.65
2023-01-28T01:34:58.385Z,8.77
2023-01-28T01:37:26.017Z,8.45
2023-01-28T01:39:53.789Z,7.65
2023-01-28T01:42:21.741Z,7.07
2023-01-28T01:44:59.287Z,7.47
2023-01-28T01:47:31.235Z,8.52
2023-01-28T01:49:59.699Z,9.57
2023-01-28T01:52:29.538Z,7.20
2023-01-28T01:54:58.465Z,8.07
2023-01-28T01:57:28.312Z,7.18
2023-01-28T01:59:56.644Z,7.68
2023-01-28T02:02:25.232Z,7.65
2023-01-28T02:04:54.267Z,7.28
2023-01-28T02:07:21.986Z,6.05
2023-01-28T02:09:50.478Z,5.60
2023-01-28T02:12:20.026Z,6.32
2023-01-28T02:14:54.720Z,7.38
2023-01-28T02:17:22.994Z,6.43
2023-01-28T02:19:54.847Z,6.38
2023-01-28T02:22:37.401Z,7.50
2023-01-28T02:25:25.893Z,6.28
2023-01-28T02:28:02.667Z,5.88
2023-01-28T02:30:33.322Z,7.07
2023-01-28T02:33:03.115Z,6.45
2023-01-28T02:35:36.464Z,7.00
2023-01-28T02:38:06.599Z,6.03
2023-01-28T02:40:56.077Z,8.00
2023-01-28T02:43:32.009Z,7.95
2023-01-28T02:46:17.804Z,8.80
2023-01-28T02:51:18.172Z,6.85
2023-01-28T02:53:47.914Z,8.23
2023-01-28T02:56:20.914Z,8.38
2023-01-28T02:58:55.360Z,8.35
2023-01-28T03:01:25.887Z,7.40
2023-01-28T03:03:58.547Z,8.43
2023-01-28T03:06:27.999Z,6.63
2023-01-28T03:09:16.850Z,6.75
2023-01-28T03:12:04.890Z,7.28
2023-01-28T03:14:53.986Z,7.55
2023-01-28T03:17:41.874Z,7.00
2023-01-28T03:20:27.733Z,8.55
2023-01-28T03:25:59.246Z,6.80
2023-01-28T03:28:45.820Z,6.00
2023-01-28T03:31:33.542Z,7.07
2023-01-28T03:34:19.353Z,6.80
2023-01-28T03:39:23.539Z,5.43
2023-01-28T03:41:57.788Z,6.68
2023-01-28T03:44:43.986Z,5.70
2023-01-28T03:47:13.545Z,5.95
2023-01-28T03:49:41.760Z,6.47
2023-01-28T03:52:09.863Z,4.90
2023-01-28T03:54:37.632Z,5.65
2023-01-28T03:57:06.245Z,5.88
2023-01-28T03:59:34.202Z,7.22
2023-01-28T04:02:03.445Z,6.03
2023-01-28T04:04:33.002Z,4.70
2023-01-28T04:07:01.188Z,5.63
2023-01-28T04:09:29.535Z,4.97
2023-01-28T04:11:57.219Z,6.20
2023-01-28T04:14:24.899Z,5.38
2023-01-28T04:16:54.969Z,5.85
2023-01-28T04:19:22.767Z,5.65
2023-01-28T04:21:54.067Z,5.38
2023-01-28T04:24:22.135Z,5.82
2023-01-28T04:26:50.374Z,6.35
2023-01-28T04:29:18.085Z,6.18
2023-01-28T04:31:45.818Z,5.55
2023-01-28T04:34:13.618Z,5.63
2023-01-28T04:36:41.497Z,6.57
2023-01-28T04:39:10.534Z,5.97
2023-01-28T04:41:38.188Z,6.13
2023-01-28T04:44:05.907Z,7.47
2023-01-28T04:46:33.824Z,6.65
2023-01-28T04:49:03.609Z,8.93
2023-01-28T04:51:31.326Z,8.27
2023-01-28T04:53:59.023Z,9.00
2023-01-28T04:56:28.079Z,8.32
2023-01-28T04:58:55.743Z,6.97
2023-01-28T05:01:24.685Z,7.35
2023-01-28T05:03:52.504Z,6.05
2023-01-28T05:06:20.144Z,6.78
2023-01-28T05:08:47.881Z,6.72
2023-01-28T05:11:15.576Z,6.07
2023-01-28T05:13:44.743Z,5.95
2023-01-28T05:16:12.449Z,5.53
2023-01-28T05:18:40.290Z,6.47
2023-01-28T05:21:08.032Z,6.93
2023-01-28T05:23:35.783Z,6.15
2023-01-28T05:26:03.510Z,6.00
2023-01-28T05:28:33.005Z,6.55
2023-01-28T05:31:05.338Z,6.80
2023-01-28T05:33:33.147Z,7.38
2023-01-28T05:36:00.871Z,4.78
2023-01-28T05:38:28.547Z,7.13
2023-01-28T05:40:56.270Z,6.35
2023-01-28T05:43:23.959Z,6.82
2023-01-28T05:45:51.692Z,6.88
2023-01-28T05:48:20.727Z,6.63
2023-01-28T05:50:48.560Z,5.95
2023-01-28T05:53:16.227Z,5.40
2023-01-28T05:55:44.012Z,6.43
2023-01-28T05:58:11.670Z,5.95
2023-01-28T06:00:39.359Z,6.22
2023-01-28T06:03:07.169Z,4.88
2023-01-28T06:05:36.386Z,5.80
2023-01-28T06:08:04.201Z,6.20
2023-01-28T06:10:32.072Z,6.07
2023-01-28T06:12:59.861Z,5.05
2023-01-28T06:15:27.504Z,5.70
2023-01-28T06:17:55.172Z,6.65
2023-01-28T06:20:22.832Z,6.28
2023-01-28T06:22:52.789Z,5.85
2023-01-28T06:25:20.852Z,6.57
2023-01-28T06:27:48.592Z,6.22
2023-01-28T06:30:16.948Z,5.38
2023-01-28T06:32:44.882Z,6.38
2023-01-28T06:35:12.555Z,6.80
2023-01-28T06:37:41.765Z,6.72
2023-01-28T06:40:11.917Z,5.47
2023-01-28T06:42:39.625Z,5.63
2023-01-28T06:45:07.834Z,6.75
2023-01-28T06:47:35.527Z,7.03
2023-01-28T06:50:04.089Z,6.63
2023-01-28T06:52:32.027Z,5.82
2023-01-28T06:54:59.696Z,5.50
2023-01-28T06:57:28.708Z,6.65
2023-01-28T06:59:56.494Z,6.75
2023-01-28T07:02:26.557Z,6.30
2023-01-28T07:04:55.301Z,7.28
2023-01-28T07:07:22.940Z,5.85
2023-01-28T07:09:50.630Z,6.68
2023-01-28T07:12:18.323Z,6.15
2023-01-28T07:14:47.415Z,6.38
2023-01-28T07:17:15.234Z,7.03
2023-01-28T07:19:42.988Z,7.60
2023-01-28T07:22:10.751Z,6.10
2023-01-28T07:24:38.410Z,6.15
2023-01-28T07:27:06.080Z,7.28
2023-01-28T07:29:34.817Z,6.40
2023-01-28T07:32:04.997Z,6.95
2023-01-28T07:34:33.580Z,5.18
2023-01-28T07:37:01.292Z,6.47
2023-01-28T07:39:28.976Z,5.78
2023-01-28T07:41:56.626Z,6.70
2023-01-28T07:44:24.383Z,5.75
2023-01-28T07:46:54.569Z,5.47
2023-01-28T07:49:24.521Z,6.60
2023-01-28T07:51:52.689Z,5.38
2023-01-28T07:54:20.365Z,6.40
2023-01-28T07:56:48.303Z,6.15
2023-01-28T07:59:15.981Z,5.90
2023-01-28T08:01:44.371Z,4.97
2023-01-28T08:04:12.214Z,6.78
2023-01-28T08:06:41.342Z,6.75
2023-01-28T08:09:10.098Z,5.93
2023-01-28T08:11:39.317Z,6.20
2023-01-28T08:14:07.272Z,5.68
2023-01-28T08:16:34.964Z,6.43
2023-01-28T08:19:02.856Z,7.88
2023-01-28T08:21:30.529Z,7.00
2023-01-28T08:24:01.764Z,7.32
2023-01-28T08:26:29.531Z,5.75
2023-01-28T08:28:57.691Z,7.00
2023-01-28T08:31:25.536Z,7.55
2023-01-28T08:33:53.188Z,6.50
2023-01-28T08:36:20.837Z,7.45
2023-01-28T08:38:48.534Z,6.75
2023-01-28T08:41:17.533Z,5.30
2023-01-28T08:43:45.613Z,6.47
2023-01-28T08:46:13.474Z,5.75
2023-01-28T08:48:41.156Z,5.70
2023-01-28T08:51:08.938Z,6.20
2023-01-28T08:53:36.608Z,5.80
2023-01-28T08:56:04.399Z,5.38
2023-01-28T08:58:33.410Z,6.82
2023-01-28T09:01:05.086Z,5.40
2023-01-28T09:03:32.952Z,5.75
2023-01-28T09:06:03.793Z,7.13
2023-01-28T09:08:31.526Z,5.55
2023-01-28T09:10:59.575Z,5.38
2023-01-28T09:13:27.516Z,4.82
2023-01-28T09:15:56.626Z,5.65
2023-01-28T09:18:25.107Z,5.85
2023-01-28T09:20:52.793Z,6.68
2023-01-28T09:23:20.465Z,6.40
2023-01-28T09:25:48.154Z,6.10
2023-01-28T09:28:15.875Z,5.47
2023-01-28T09:30:43.909Z,5.82
2023-01-28T09:33:12.958Z,6.38
2023-01-28T09:35:40.840Z,6.55
2023-01-28T09:38:08.535Z,7.30
2023-01-28T09:40:38.288Z,6.90
2023-01-28T09:43:25.907Z,6.80
2023-01-28T09:45:54.476Z,5.38
2023-01-28T09:48:24.594Z,6.68
2023-01-28T09:50:54.037Z,5.97
2023-01-28T09:53:23.137Z,6.15
2023-01-28T09:55:52.206Z,7.28
2023-01-28T09:58:19.937Z,5.97
2023-01-28T10:00:52.565Z,6.30
2023-01-28T10:03:28.135Z,6.22
2023-01-28T10:06:01.300Z,6.47
2023-01-28T10:08:39.123Z,6.15
2023-01-28T10:11:12.164Z,5.05
2023-01-28T10:13:43.507Z,6.95
2023-01-28T10:16:17.672Z,5.93
2023-01-28T10:18:48.114Z,7.03
2023-01-28T10:21:19.133Z,7.43
2023-01-28T10:23:49.572Z,7.95
2023-01-28T10:26:23.873Z,5.53
2023-01-28T10:28:54.771Z,5.85
2023-01-28T10:31:23.169Z,5.53
2023-01-28T10:33:52.233Z,5.45
2023-01-28T10:36:20.447Z,4.95
2023-01-28T10:38:48.180Z,5.18
2023-01-28T10:41:21.037Z,6.60
2023-01-28T10:43:49.546Z,5.30
2023-01-28T10:46:18.539Z,5.82
2023-01-28T10:48:47.633Z,5.38
2023-01-28T10:51:20.809Z,6.80
2023-01-28T10:53:48.465Z,5.70
2023-01-28T10:56:17.571Z,6.18
2023-01-28T10:58:49.360Z,5.60
2023-01-28T11:01:17.165Z,6.03
2023-01-28T11:03:54.657Z,6.03
2023-01-28T11:06:27.149Z,6.63
2023-01-28T11:08:54.874Z,6.97
2023-01-28T11:11:26.769Z,7.07
2023-01-28T11:13:55.755Z,5.88
2023-01-28T11:16:23.428Z,6.80
2023-01-28T11:18:53.178Z,6.15
2023-01-28T11:21:21.698Z,6.45
2023-01-28T11:23:52.918Z,6.63
2023-01-28T11:26:22.573Z,7.72
2023-01-28T11:28:51.219Z,6.45
2023-01-28T11:31:20.229Z,6.00
2023-01-28T11:33:50.560Z,7.47
2023-01-28T11:36:19.947Z,6.38
2023-01-28T11:38:53.088Z,6.53
2023-01-28T11:41:25.548Z,6.85
2023-01-28T11:43:53.258Z,5.57
2023-01-28T11:46:31.522Z,5.20
2023-01-28T11:49:04.655Z,6.05
2023-01-28T11:51:38.017Z,6.65
2023-01-28T11:54:13.442Z,5.95
2023-01-28T11:56:46.981Z,6.75
2023-01-28T11:59:25.902Z,8.40
2023-01-28T12:01:56.243Z,6.40
2023-01-28T12:04:35.994Z,6.18
2023-01-28T12:07:09.936Z,7.03
2023-01-28T12:09:44.123Z,6.72
2023-01-28T12:12:18.804Z,6.75
2023-01-28T12:15:07.111Z,6.75
2023-01-28T12:17:44.458Z,5.07
2023-01-28T12:20:19.511Z,6.63
2023-01-28T12:22:57.573Z,4.90
2023-01-28T12:25:36.040Z,6.13
2023-01-28T12:28:10.103Z,5.68
2023-01-28T12:30:46.831Z,5.22
2023-01-28T12:33:29.326Z,5.82
2023-01-28T12:36:02.886Z,5.25
2023-01-28T12:38:37.132Z,5.38
2023-01-28T12:41:09.039Z,5.43
2023-01-28T12:43:44.881Z,5.15
2023-01-28T12:46:18.032Z,6.25
2023-01-28T12:48:48.041Z,6.80
2023-01-28T12:51:16.978Z,6.05
2023-01-28T12:53:48.994Z,6.05
2023-01-28T12:56:19.224Z,5.35
2023-01-28T12:58:50.475Z,5.97
2023-01-28T13:01:21.273Z,4.97
2023-01-28T13:03:52.577Z,5.28
2023-01-28T13:06:23.178Z,5.90
2023-01-28T13:08:51.341Z,4.53
2023-01-28T13:11:21.197Z,3.78
2023-01-28T13:13:49.302Z,4.05
2023-01-28T13:16:19.391Z,4.00
2023-01-28T13:18:48.887Z,4.45
2023-01-28T13:21:18.413Z,3.50
2023-01-28T13:23:47.054Z,4.55
2023-01-28T13:26:35.542Z,3.58
2023-01-28T13:29:19.002Z,3.83
2023-01-28T13:31:51.178Z,3.83
2023-01-28T13:34:33.075Z,3.97
2023-01-28T13:37:02.336Z,3.63
2023-01-28T13:39:31.825Z,4.38
2023-01-28T13:42:09.918Z,3.97
2023-01-28T13:44:40.090Z,3.67
2023-01-28T13:47:16.267Z,4.28
2023-01-28T13:49:45.981Z,3.17
2023-01-28T13:52:16.031Z,4.72
2023-01-28T13:54:46.144Z,4.93
2023-01-28T13:57:28.429Z,4.13
2023-01-28T14:00:01.459Z,4.22
2023-01-28T14:02:45.965Z,4.10
2023-01-28T14:05:28.428Z,3.80
2023-01-28T14:08:10.934Z,3.85
2023-01-28T14:10:49.409Z,3.58
2023-01-28T14:13:31.329Z,3.35
2023-01-28T14:16:06.870Z,3.72
2023-01-28T14:18:37.017Z,3.95
2023-01-28T14:21:10.456Z,4.60
2023-01-28T14:23:38.664Z,5.10
2023-01-28T14:26:11.423Z,5.13
2023-01-28T14:28:47.948Z,4.80
2023-01-28T14:31:19.867Z,4.18
2023-01-28T14:33:48.065Z,4.72
2023-01-28T14:36:15.841Z,5.13
2023-01-28T14:38:44.902Z,5.20
2023-01-28T14:41:18.807Z,4.07
2023-01-28T14:43:46.501Z,5.68
2023-01-28T14:46:20.424Z,5.70
2023-01-28T14:48:56.824Z,4.95
2023-01-28T14:51:37.588Z,5.72
2023-01-28T14:54:19.968Z,5.53
2023-01-28T14:56:55.698Z,5.68
2023-01-28T14:59:24.329Z,5.97
2023-01-28T15:01:56.497Z,5.63
2023-01-28T15:04:27.080Z,5.32
2023-01-28T15:06:55.005Z,7.53
2023-01-28T15:09:24.152Z,8.23
2023-01-28T15:11:53.242Z,4.13
2023-01-28T15:14:24.556Z,9.48
2023-01-28T15:16:52.390Z,13.10
2023-01-28T15:19:24.092Z,7.90
2023-01-28T15:21:55.706Z,9.02
2023-01-28T15:24:23.523Z,5.88
2023-01-28T15:26:51.722Z,4.90
2023-01-28T15:29:25.336Z,5.20
2023-01-28T15:31:54.637Z,4.82
2023-01-28T15:34:23.563Z,4.28
2023-01-28T15:36:51.490Z,4.43
2023-01-28T15:39:21.764Z,7.60
2023-01-28T15:41:51.048Z,8.93
2023-01-28T15:44:19.720Z,6.43
2023-01-28T15:46:47.371Z,8.10
2023-01-28T15:49:15.880Z,5.30
2023-01-28T15:51:50.980Z,5.45
2023-01-28T15:54:20.660Z,5.90
2023-01-28T15:56:48.489Z,5.60
2023-01-28T15:59:20.931Z,4.25
2023-01-28T16:01:48.682Z,4.60
2023-01-28T16:04:26.015Z,5.57
2023-01-28T16:06:54.397Z,4.57
2023-01-28T16:09:25.711Z,5.95
2023-01-28T16:11:53.775Z,4.75
2023-01-28T16:14:23.392Z,4.25
2023-01-28T16:16:51.379Z,4.72
2023-01-28T16:19:24.375Z,4.90
2023-01-28T16:21:52.063Z,5.78
2023-01-28T16:24:23.485Z,6.50
2023-01-28T16:26:58.427Z,6.63
2023-01-28T16:29:27.293Z,5.32
2023-01-28T16:31:57.052Z,5.65
2023-01-28T16:34:27.509Z,6.80
2023-01-28T16:36:55.491Z,5.43
2023-01-28T16:39:23.186Z,7.07
2023-01-28T16:41:50.841Z,6.20
2023-01-28T16:44:19.948Z,6.20
2023-01-28T16:46:47.747Z,5.57
2023-01-28T16:49:15.639Z,7.75
2023-01-28T16:51:44.204Z,6.38
2023-01-28T16:54:13.873Z,5.97
2023-01-28T16:56:45.735Z,6.65
2023-01-28T16:59:14.978Z,5.57
2023-01-28T17:01:44.282Z,6.18
2023-01-28T17:04:13.183Z,6.43
2023-01-28T17:06:43.274Z,6.35
2023-01-28T17:09:11.723Z,4.78
2023-01-28T17:11:39.751Z,6.68
2023-01-28T17:14:07.518Z,6.22
2023-01-28T17:16:35.257Z,4.18
2023-01-28T17:19:04.505Z,5.78
2023-01-28T17:21:32.185Z,5.57
2023-01-28T17:24:00.920Z,5.30
2023-01-28T17:26:30.121Z,4.40
2023-01-28T17:28:57.955Z,5.13
2023-01-28T17:31:26.463Z,6.45
2023-01-28T17:33:55.131Z,6.05
2023-01-28T17:36:24.221Z,7.65
2023-01-28T17:38:52.011Z,7.13
2023-01-28T17:41:19.712Z,7.00
2023-01-28T17:43:51.136Z,6.35
2023-01-28T17:46:19.911Z,7.47
2023-01-28T17:48:47.605Z,7.47
2023-01-28T17:51:16.866Z,8.23
2023-01-28T17:53:47.893Z,8.02
2023-01-28T17:56:16.893Z,7.47
2023-01-28T17:58:44.751Z,7.40
2023-01-28T18:01:12.550Z,7.30
2023-01-28T18:03:40.243Z,8.15
2023-01-28T18:06:07.940Z,6.07
2023-01-28T18:08:35.943Z,5.65
2023-01-28T18:11:08.848Z,5.53
2023-01-28T18:13:36.768Z,5.40
2023-01-28T18:16:04.604Z,6.20
2023-01-28T18:18:32.393Z,5.50
2023-01-28T18:21:00.804Z,6.40
2023-01-28T18:23:28.473Z,6.55
2023-01-28T18:25:56.914Z,5.50
2023-01-28T18:28:26.555Z,7.82
2023-01-28T18:30:54.532Z,6.72
2023-01-28T18:33:23.092Z,6.82
2023-01-28T18:35:50.865Z,5.97
2023-01-28T18:38:19.449Z,6.57
2023-01-28T18:40:47.549Z,7.43
2023-01-28T18:43:15.274Z,7.65
2023-01-28T18:45:45.807Z,7.68
2023-01-28T18:48:13.670Z,7.28
2023-01-28T18:50:41.475Z,7.20
2023-01-28T18:53:09.118Z,6.35
2023-01-28T18:55:39.127Z,7.32
2023-01-28T18:58:06.904Z,7.20
2023-01-28T19:00:34.591Z,7.60
2023-01-28T19:03:03.777Z,8.82
2023-01-28T19:05:35.395Z,10.18
2023-01-28T19:08:03.681Z,9.70
2023-01-28T19:10:31.633Z,9.95
2023-01-28T19:12:59.360Z,9.50
2023-01-28T19:15:27.164Z,10.43
2023-01-28T19:17:55.228Z,9.63
2023-01-28T19:20:24.349Z,9.35
2023-01-28T19:22:52.022Z,9.30
2023-01-28T19:25:19.962Z,7.68
2023-01-28T19:27:48.037Z,7.30
2023-01-28T19:30:16.610Z,8.15
2023-01-28T19:32:44.935Z,7.75
2023-01-28T19:35:12.602Z,7.35
2023-01-28T19:37:41.721Z,8.65
2023-01-28T19:40:10.153Z,9.05
2023-01-28T19:42:38.052Z,8.45
2023-01-28T19:45:06.534Z,7.80
2023-01-28T19:47:34.527Z,9.10
2023-01-28T19:50:02.193Z,9.82
2023-01-28T19:52:31.625Z,9.80
2023-01-28T19:55:00.670Z,10.38
2023-01-28T19:57:28.305Z,12.02
2023-01-28T19:59:56.036Z,13.10
2023-01-28T20:02:23.764Z,13.23
2023-01-28T20:05:00.584Z,12.68
2023-01-28T20:07:28.735Z,14.65
2023-01-28T20:09:56.499Z,12.80
2023-01-28T20:12:25.969Z,14.77
2023-01-28T20:14:53.765Z,11.00
2023-01-28T20:17:21.769Z,8.23
2023-01-28T20:19:50.017Z,8.32
2023-01-28T20:22:20.445Z,9.15
2023-01-28T20:24:49.120Z,9.68
2023-01-28T20:27:16.791Z,8.43
2023-01-28T20:29:45.785Z,9.52
2023-01-28T20:32:18.300Z,11.50
2023-01-28T20:34:48.724Z,8.48
2023-01-28T20:37:19.237Z,8.32
2023-01-28T20:39:46.958Z,10.88
2023-01-28T20:42:15.025Z,8.57
2023-01-28T20:44:42.896Z,11.80
2023-01-28T20:47:11.980Z,11.50
2023-01-28T20:49:39.785Z,11.65
2023-01-28T20:52:07.523Z,11.68
2023-01-28T20:54:35.828Z,11.15
2023-01-28T20:57:03.550Z,10.23
2023-01-28T20:59:32.585Z,9.80
2023-01-28T21:02:00.801Z,10.25
2023-01-28T21:04:30.235Z,12.25
2023-01-28T21:06:57.950Z,9.45
2023-01-28T21:09:27.865Z,11.18
2023-01-28T21:11:55.698Z,10.13
2023-01-28T21:14:23.367Z,9.88
2023-01-28T21:16:53.041Z,10.75
2023-01-28T21:19:20.858Z,10.02
2023-01-28T21:21:49.957Z,8.57
2023-01-28T21:24:17.757Z,8.85
2023-01-28T21:26:45.417Z,11.18
2023-01-28T21:29:14.655Z,10.45
2023-01-28T21:31:42.684Z,9.55
2023-01-28T21:34:10.576Z,8.20
2023-01-28T21:36:38.840Z,8.93
2023-01-28T21:39:07.935Z,8.45
2023-01-28T21:41:35.838Z,7.07
2023-01-28T21:44:03.562Z,9.15
2023-01-28T21:46:32.807Z,9.15
2023-01-28T21:49:01.664Z,7.07
2023-01-28T21:51:39.603Z,9.27
2023-01-28T21:54:10.814Z,9.80
2023-01-28T21:56:38.537Z,8.68
2023-01-28T21:59:23.649Z,10.52
2023-01-28T22:01:51.341Z,11.00
2023-01-28T22:04:19.023Z,8.30
2023-01-28T22:06:46.928Z,8.25
2023-01-28T22:09:16.164Z,10.95
2023-01-28T22:11:45.227Z,9.13
2023-01-28T22:14:13.340Z,8.20
2023-01-28T22:16:41.284Z,8.10
2023-01-28T22:19:09.278Z,8.45
2023-01-28T22:21:41.160Z,9.10
2023-01-28T22:24:10.177Z,11.82
2023-01-28T22:26:39.337Z,10.38
2023-01-28T22:29:07.588Z,10.48
2023-01-28T22:31:35.407Z,10.15
2023-01-28T22:34:03.168Z,12.25
2023-01-28T22:36:32.861Z,10.70
2023-01-28T22:39:00.728Z,13.48
2023-01-28T22:41:28.963Z,10.50
2023-01-28T22:43:58.008Z,9.68
2023-01-28T22:46:25.889Z,9.50
2023-01-28T22:48:53.874Z,9.95
2023-01-28T22:51:22.299Z,8.60
2023-01-28T22:53:50.819Z,10.15
2023-01-28T22:56:19.714Z,10.43
2023-01-28T22:58:47.632Z,7.93
2023-01-28T23:01:17.904Z,9.07
2023-01-28T23:03:47.350Z,7.65
2023-01-28T23:06:16.562Z,7.75
2023-01-28T23:08:45.068Z,7.43
2023-01-28T23:11:15.423Z,9.55
2023-01-28T23:14:00.894Z,11.35
2023-01-28T23:16:48.066Z,10.45
2023-01-28T23:19:33.267Z,8.60
2023-01-28T23:22:20.830Z,8.02
2023-01-28T23:24:48.518Z,9.63
2023-01-28T23:27:16.242Z,10.57
2023-01-28T23:29:43.883Z,7.53
2023-01-28T23:32:13.612Z,8.43
2023-01-28T23:34:44.463Z,9.80
2023-01-28T23:37:13.016Z,8.80
2023-01-28T23:39:41.160Z,10.40
2023-01-28T23:42:13.065Z,10.43
2023-01-28T23:44:40.704Z,9.38
2023-01-28T23:47:08.626Z,11.23
2023-01-28T23:49:38.017Z,10.30
2023-01-28T23:52:06.359Z,9.90
2023-01-28T23:54:34.058Z,11.13
2023-01-28T23:57:02.138Z,8.88
2023-01-28T23:59:29.805Z,10.52
